PIMOHWEATHER Station Historical Data
Daily Summary for November 01, 2020 Units:  Metric    English   Both
Daily Weekly Monthly Yearly
  High: Low: Average:
Temperature: 27.0 °C 23.0 °C 24.7 °C
Dew Point: 22.0 °C 20.0 °C 21.3 °C
Humidity: 91% 71% 81%
Wind Speed: 69km/h 4km/h 26.9km/h
Wind Gust: 97km/h - -
Wind- - SSE
Pressure: 1011.2 hPa 1001.6 hPa -
Precipitation: 27.61 mm    
 
 
Tabular Data for November 01, 2020
Time Temperature Dew Point Pressure Wind Wind Speed Wind Gust Humidity Rainfall Rate (Hourly) solar
00:04 27.0 °C 22.0 °C 1011.2 hPa NNE 10 km/h 16 km/h 73% 0.00 mm 0.00 W/m2
00:09 27.0 °C 22.0 °C 1011.0 hPa North 12 km/h 16 km/h 73% 0.00 mm 0.00 W/m2
00:14 27.0 °C 22.0 °C 1010.8 hPa North 10 km/h 12 km/h 73% 0.00 mm 0.00 W/m2
00:19 27.0 °C 22.0 °C 1010.9 hPa North 8 km/h 12 km/h 74% 0.00 mm 0.00 W/m2
00:24 27.0 °C 22.0 °C 1010.8 hPa North 12 km/h 16 km/h 74% 0.00 mm 0.00 W/m2
00:29 27.0 °C 22.0 °C 1010.6 hPa North 13 km/h 16 km/h 74% 0.00 mm 0.00 W/m2
00:34 27.0 °C 22.0 °C 1010.5 hPa North 10 km/h 12 km/h 74% 0.00 mm 0.00 W/m2
00:39 27.0 °C 22.0 °C 1010.4 hPa North 8 km/h 12 km/h 74% 0.00 mm 0.00 W/m2
00:44 27.0 °C 22.0 °C 1010.5 hPa North 13 km/h 16 km/h 75% 0.00 mm 0.00 W/m2
00:49 27.0 °C 22.0 °C 1010.5 hPa North 10 km/h 12 km/h 75% 0.00 mm 0.00 W/m2
00:54 27.0 °C 22.0 °C 1010.4 hPa North 8 km/h 12 km/h 75% 0.00 mm 0.00 W/m2
00:59 27.0 °C 22.0 °C 1010.2 hPa North 9 km/h 12 km/h 75% 0.00 mm 0.00 W/m2
01:04 27.0 °C 22.0 °C 1010.3 hPa North 8 km/h 8 km/h 75% 0.00 mm 0.00 W/m2
01:09 27.0 °C 22.0 °C 1010.2 hPa North 9 km/h 12 km/h 75% 0.00 mm 0.00 W/m2
01:14 27.0 °C 22.0 °C 1010.0 hPa North 13 km/h 16 km/h 75% 0.00 mm 0.00 W/m2
01:19 27.0 °C 22.0 °C 1010.0 hPa North 9 km/h 16 km/h 75% 0.00 mm 0.00 W/m2
01:24 27.0 °C 22.0 °C 1010.0 hPa North 13 km/h 16 km/h 75% 0.00 mm 0.00 W/m2
01:29 27.0 °C 22.0 °C 1010.0 hPa North 10 km/h 16 km/h 75% 0.00 mm 0.00 W/m2
01:34 27.0 °C 22.0 °C 1009.8 hPa North 10 km/h 12 km/h 74% 0.00 mm 0.00 W/m2
01:39 27.0 °C 22.0 °C 1009.8 hPa North 8 km/h 12 km/h 74% 0.00 mm 0.00 W/m2
01:44 27.0 °C 22.0 °C 1009.8 hPa North 10 km/h 20 km/h 73% 0.00 mm 0.00 W/m2
01:49 27.0 °C 21.0 °C 1009.6 hPa North 14 km/h 20 km/h 72% 0.00 mm 0.00 W/m2
01:54 27.0 °C 21.0 °C 1009.4 hPa North 14 km/h 20 km/h 72% 0.00 mm 0.00 W/m2
01:59 27.0 °C 21.0 °C 1009.4 hPa North 11 km/h 12 km/h 72% 0.00 mm 0.00 W/m2
02:04 27.0 °C 22.0 °C 1009.4 hPa North 9 km/h 12 km/h 73% 0.00 mm 0.00 W/m2
02:09 27.0 °C 22.0 °C 1009.5 hPa North 9 km/h 12 km/h 73% 0.00 mm 0.00 W/m2
02:14 27.0 °C 21.0 °C 1009.5 hPa North 10 km/h 12 km/h 72% 0.00 mm 0.00 W/m2
02:19 27.0 °C 22.0 °C 1009.7 hPa NNW 7 km/h 12 km/h 73% 0.00 mm 0.00 W/m2
02:24 27.0 °C 22.0 °C 1009.5 hPa NNW 6 km/h 8 km/h 74% 0.00 mm 0.00 W/m2
02:29 27.0 °C 22.0 °C 1009.4 hPa NNW 10 km/h 12 km/h 75% 0.00 mm 0.00 W/m2
02:34 27.0 °C 22.0 °C 1009.3 hPa NNW 13 km/h 16 km/h 76% 0.00 mm 0.00 W/m2
02:39 26.0 °C 22.0 °C 1009.2 hPa NNW 9 km/h 12 km/h 76% 0.00 mm 0.00 W/m2
02:44 26.0 °C 22.0 °C 1009.0 hPa North 12 km/h 20 km/h 76% 0.00 mm 0.00 W/m2
02:49 26.0 °C 22.0 °C 1009.0 hPa NNW 10 km/h 16 km/h 76% 0.00 mm 0.00 W/m2
02:54 26.0 °C 22.0 °C 1009.0 hPa North 11 km/h 16 km/h 76% 0.00 mm 0.00 W/m2
02:59 26.0 °C 22.0 °C 1008.9 hPa North 12 km/h 16 km/h 76% 0.00 mm 0.00 W/m2
03:04 26.0 °C 22.0 °C 1008.8 hPa North 13 km/h 16 km/h 76% 0.00 mm 0.00 W/m2
03:09 26.0 °C 22.0 °C 1008.8 hPa North 12 km/h 16 km/h 76% 0.00 mm 0.00 W/m2
03:14 26.0 °C 22.0 °C 1008.8 hPa North 15 km/h 20 km/h 76% 0.00 mm 0.00 W/m2
03:19 26.0 °C 22.0 °C 1008.7 hPa North 17 km/h 20 km/h 77% 0.00 mm 0.00 W/m2
03:24 26.0 °C 22.0 °C 1008.8 hPa North 17 km/h 20 km/h 77% 0.00 mm 0.00 W/m2
03:29 26.0 °C 22.0 °C 1008.5 hPa North 13 km/h 20 km/h 77% 0.00 mm 0.00 W/m2
03:34 26.0 °C 22.0 °C 1008.4 hPa North 14 km/h 16 km/h 77% 0.00 mm 0.00 W/m2
03:39 26.0 °C 22.0 °C 1008.3 hPa North 15 km/h 16 km/h 77% 0.00 mm 0.00 W/m2
03:44 26.0 °C 22.0 °C 1008.3 hPa North 14 km/h 16 km/h 77% 0.00 mm 0.00 W/m2
03:49 26.0 °C 22.0 °C 1008.3 hPa North 12 km/h 16 km/h 77% 0.00 mm 0.00 W/m2
03:54 26.0 °C 22.0 °C 1008.0 hPa NNW 10 km/h 12 km/h 77% 0.00 mm 0.00 W/m2
03:59 26.0 °C 22.0 °C 1008.1 hPa North 15 km/h 20 km/h 77% 0.00 mm 0.00 W/m2
04:04 26.0 °C 21.0 °C 1008.1 hPa North 12 km/h 16 km/h 76% 0.00 mm 0.00 W/m2
04:09 26.0 °C 21.0 °C 1008.1 hPa North 9 km/h 12 km/h 76% 0.00 mm 0.00 W/m2
04:14 26.0 °C 21.0 °C 1008.1 hPa North 10 km/h 16 km/h 76% 0.00 mm 0.00 W/m2
04:19 26.0 °C 21.0 °C 1008.1 hPa North 15 km/h 24 km/h 75% 0.00 mm 0.00 W/m2
04:24 26.0 °C 21.0 °C 1007.9 hPa North 20 km/h 28 km/h 74% 0.00 mm 0.00 W/m2
04:29 26.0 °C 21.0 °C 1008.0 hPa North 21 km/h 32 km/h 74% 0.00 mm 0.00 W/m2
04:34 26.0 °C 21.0 °C 1008.1 hPa North 21 km/h 24 km/h 73% 0.00 mm 0.00 W/m2
04:39 26.0 °C 21.0 °C 1008.2 hPa North 15 km/h 24 km/h 73% 0.00 mm 0.00 W/m2
04:44 26.0 °C 21.0 °C 1008.2 hPa North 18 km/h 24 km/h 73% 0.00 mm 0.00 W/m2
04:49 26.0 °C 21.0 °C 1008.3 hPa North 24 km/h 28 km/h 73% 0.00 mm 0.00 W/m2
04:54 26.0 °C 21.0 °C 1008.3 hPa North 14 km/h 20 km/h 73% 0.00 mm 0.00 W/m2
04:59 26.0 °C 21.0 °C 1008.3 hPa North 17 km/h 24 km/h 73% 0.00 mm 0.00 W/m2
05:04 26.0 °C 21.0 °C 1008.4 hPa North 22 km/h 28 km/h 73% 0.00 mm 0.00 W/m2
05:09 26.0 °C 21.0 °C 1008.2 hPa North 23 km/h 24 km/h 73% 0.00 mm 0.00 W/m2
05:14 26.0 °C 21.0 °C 1008.5 hPa North 21 km/h 24 km/h 73% 0.00 mm 0.00 W/m2
05:19 26.0 °C 21.0 °C 1008.5 hPa North 15 km/h 20 km/h 73% 0.00 mm 0.00 W/m2
05:24 26.0 °C 21.0 °C 1008.6 hPa North 21 km/h 28 km/h 73% 0.00 mm 0.00 W/m2
05:29 26.0 °C 21.0 °C 1008.6 hPa North 18 km/h 24 km/h 73% 0.00 mm 0.00 W/m2
05:34 26.0 °C 21.0 °C 1008.7 hPa North 15 km/h 20 km/h 73% 0.00 mm 0.00 W/m2
05:39 26.0 °C 21.0 °C 1008.7 hPa North 18 km/h 28 km/h 73% 0.00 mm 0.00 W/m2
05:44 26.0 °C 21.0 °C 1008.7 hPa North 20 km/h 28 km/h 73% 0.00 mm 0.00 W/m2
05:49 26.0 °C 21.0 °C 1008.7 hPa North 14 km/h 20 km/h 73% 0.00 mm 0.00 W/m2
05:54 26.0 °C 21.0 °C 1008.8 hPa North 21 km/h 24 km/h 73% 0.00 mm 0.00 W/m2
05:59 26.0 °C 21.0 °C 1008.8 hPa North 18 km/h 24 km/h 73% 0.00 mm 0.85 W/m2
06:04 26.0 °C 20.0 °C 1008.7 hPa North 17 km/h 20 km/h 72% 0.00 mm 2.94 W/m2
06:09 26.0 °C 20.0 °C 1008.7 hPa North 17 km/h 20 km/h 72% 0.00 mm 4.28 W/m2
06:14 26.0 °C 20.0 °C 1008.9 hPa North 15 km/h 24 km/h 72% 0.00 mm 5.99 W/m2
06:19 26.0 °C 20.0 °C 1009.0 hPa North 14 km/h 20 km/h 71% 0.00 mm 7.70 W/m2
06:24 26.0 °C 20.0 °C 1009.2 hPa North 12 km/h 16 km/h 71% 0.00 mm 8.56 W/m2
06:29 26.0 °C 20.0 °C 1009.3 hPa North 13 km/h 20 km/h 71% 0.00 mm 8.56 W/m2
06:34 26.0 °C 20.0 °C 1009.5 hPa North 19 km/h 24 km/h 71% 0.00 mm 9.54 W/m2
06:39 26.0 °C 20.0 °C 1009.3 hPa North 10 km/h 12 km/h 72% 0.00 mm 9.91 W/m2
06:44 26.0 °C 20.0 °C 1009.4 hPa North 12 km/h 16 km/h 72% 0.00 mm 15.17 W/m2
06:49 26.0 °C 20.0 °C 1009.4 hPa North 12 km/h 16 km/h 73% 0.00 mm 18.11 W/m2
06:54 26.0 °C 20.0 °C 1009.6 hPa North 14 km/h 16 km/h 72% 0.00 mm 23.36 W/m2
06:59 26.0 °C 20.0 °C 1009.6 hPa North 5 km/h 8 km/h 73% 0.00 mm 24.71 W/m2
07:04 26.0 °C 21.0 °C 1009.5 hPa North 10 km/h 12 km/h 74% 0.00 mm 32.42 W/m2
07:09 25.0 °C 21.0 °C 1009.8 hPa NNE 5 km/h 8 km/h 74% 0.00 mm 34.25 W/m2
07:14 25.0 °C 21.0 °C 1009.8 hPa North 8 km/h 12 km/h 75% 0.00 mm 33.76 W/m2
07:19 25.0 °C 21.0 °C 1009.8 hPa North 12 km/h 16 km/h 75% 0.00 mm 32.05 W/m2
07:24 25.0 °C 21.0 °C 1009.7 hPa NNW 13 km/h 16 km/h 75% 0.00 mm 32.05 W/m2
07:29 25.0 °C 21.0 °C 1009.8 hPa North 10 km/h 12 km/h 75% 0.00 mm 29.48 W/m2
07:34 25.0 °C 21.0 °C 1009.8 hPa NNW 12 km/h 12 km/h 75% 0.00 mm 26.42 W/m2
07:39 25.0 °C 21.0 °C 1009.9 hPa NNW 14 km/h 20 km/h 75% 0.00 mm 25.94 W/m2
07:44 25.0 °C 21.0 °C 1009.9 hPa NNW 19 km/h 24 km/h 75% 0.00 mm 25.56 W/m2
07:49 25.0 °C 21.0 °C 1009.9 hPa NNW 17 km/h 20 km/h 75% 1.80 mm 31.19 W/m2
07:54 25.0 °C 21.0 °C 1010.0 hPa North 15 km/h 20 km/h 76% 1.80 mm 30.70 W/m2
07:59 25.0 °C 21.0 °C 1009.9 hPa NNW 16 km/h 20 km/h 76% 1.80 mm 32.42 W/m2
08:04 25.0 °C 20.0 °C 1009.8 hPa North 14 km/h 20 km/h 76% 0.00 mm 37.68 W/m2
08:09 25.0 °C 20.0 °C 1010.0 hPa North 18 km/h 24 km/h 77% 1.80 mm 48.07 W/m2
08:14 25.0 °C 20.0 °C 1010.1 hPa North 22 km/h 28 km/h 78% 1.80 mm 50.28 W/m2
08:19 24.0 °C 21.0 °C 1010.2 hPa North 24 km/h 32 km/h 79% 3.61 mm 51.14 W/m2
08:24 24.0 °C 21.0 °C 1010.1 hPa North 20 km/h 28 km/h 79% 1.80 mm 51.14 W/m2
08:29 24.0 °C 20.0 °C 1010.3 hPa North 19 km/h 24 km/h 78% 1.80 mm 38.53 W/m2
08:34 24.0 °C 20.0 °C 1010.1 hPa North 23 km/h 24 km/h 78% 0.00 mm 36.33 W/m2
08:39 24.0 °C 20.0 °C 1010.0 hPa North 26 km/h 32 km/h 77% 1.80 mm 42.94 W/m2
08:44 25.0 °C 20.0 °C 1010.0 hPa North 30 km/h 36 km/h 76% 1.80 mm 41.10 W/m2
08:49 25.0 °C 20.0 °C 1010.2 hPa North 35 km/h 48 km/h 75% 1.80 mm 27.28 W/m2
08:54 25.0 °C 20.0 °C 1009.9 hPa North 25 km/h 28 km/h 76% 1.80 mm 22.02 W/m2
08:59 24.0 °C 20.0 °C 1009.9 hPa North 35 km/h 44 km/h 77% 3.61 mm 26.42 W/m2
09:04 24.0 °C 20.0 °C 1010.1 hPa North 33 km/h 40 km/h 78% 3.61 mm 22.87 W/m2
09:09 24.0 °C 20.0 °C 1010.3 hPa North 16 km/h 28 km/h 79% 5.41 mm 23.36 W/m2
09:14 24.0 °C 20.0 °C 1010.5 hPa North 26 km/h 32 km/h 79% 5.41 mm 25.94 W/m2
09:19 23.0 °C 20.0 °C 1010.4 hPa North 33 km/h 44 km/h 80% 5.41 mm 32.05 W/m2
09:24 23.0 °C 20.0 °C 1010.4 hPa North 34 km/h 48 km/h 81% 7.19 mm 33.39 W/m2
09:29 23.0 °C 20.0 °C 1010.2 hPa NNW 35 km/h 40 km/h 82% 7.19 mm 30.34 W/m2
09:34 23.0 °C 20.0 °C 1010.1 hPa North 26 km/h 40 km/h 82% 3.61 mm 22.51 W/m2
09:39 23.0 °C 20.0 °C 1010.4 hPa North 20 km/h 32 km/h 82% 1.80 mm 16.39 W/m2
09:44 23.0 °C 20.0 °C 1010.3 hPa North 24 km/h 32 km/h 82% 3.61 mm 14.31 W/m2
09:49 23.0 °C 20.0 °C 1010.3 hPa North 30 km/h 36 km/h 83% 7.19 mm 12.97 W/m2
09:54 23.0 °C 20.0 °C 1010.3 hPa North 27 km/h 40 km/h 84% 8.99 mm 14.31 W/m2
09:59 23.0 °C 20.0 °C 1010.2 hPa North 22 km/h 28 km/h 85% 8.99 mm 14.68 W/m2
10:04 23.0 °C 20.0 °C 1010.3 hPa North 25 km/h 32 km/h 85% 8.99 mm 14.68 W/m2
10:09 23.0 °C 20.0 °C 1010.5 hPa North 18 km/h 24 km/h 86% 7.19 mm 18.11 W/m2
10:14 23.0 °C 20.0 °C 1010.5 hPa North 26 km/h 40 km/h 86% 7.19 mm 25.07 W/m2
10:19 23.0 °C 20.0 °C 1010.4 hPa North 29 km/h 44 km/h 86% 7.19 mm 33.76 W/m2
10:24 23.0 °C 20.0 °C 1009.8 hPa North 34 km/h 53 km/h 85% 5.41 mm 47.22 W/m2
10:29 23.0 °C 20.0 °C 1009.6 hPa NNW 27 km/h 44 km/h 85% 1.80 mm 51.50 W/m2
10:39 23.0 °C 20.0 °C 1009.6 hPa North 26 km/h 32 km/h 86% 3.61 mm 55.05 W/m2
10:44 23.0 °C 21.0 °C 1009.5 hPa North 18 km/h 24 km/h 87% 5.41 mm 47.22 W/m2
10:49 23.0 °C 21.0 °C 1009.6 hPa North 30 km/h 36 km/h 87% 7.19 mm 74.14 W/m2
10:54 23.0 °C 20.0 °C 1009.5 hPa North 22 km/h 28 km/h 87% 7.19 mm 100.56 W/m2
10:59 23.0 °C 21.0 °C 1009.1 hPa North 27 km/h 40 km/h 88% 7.19 mm 82.33 W/m2
11:04 23.0 °C 21.0 °C 1009.1 hPa North 29 km/h 40 km/h 88% 5.41 mm 63.24 W/m2
11:09 23.0 °C 21.0 °C 1009.1 hPa North 26 km/h 36 km/h 88% 3.61 mm 47.71 W/m2
11:14 23.0 °C 21.0 °C 1008.9 hPa North 27 km/h 36 km/h 88% 1.80 mm 51.99 W/m2
11:19 23.0 °C 21.0 °C 1008.6 hPa North 28 km/h 36 km/h 88% 1.80 mm 48.07 W/m2
11:24 23.0 °C 21.0 °C 1008.4 hPa North 31 km/h 44 km/h 88% 3.61 mm 102.27 W/m2
11:29 23.0 °C 21.0 °C 1008.1 hPa North 31 km/h 40 km/h 87% 3.61 mm 110.10 W/m2
11:34 23.0 °C 21.0 °C 1008.4 hPa NNE 26 km/h 44 km/h 87% 3.61 mm 90.65 W/m2
11:39 23.0 °C 21.0 °C 1008.5 hPa North 32 km/h 40 km/h 87% 1.80 mm 57.25 W/m2
11:44 23.0 °C 21.0 °C 1008.6 hPa North 43 km/h 68 km/h 87% 1.80 mm 57.62 W/m2
11:49 23.0 °C 21.0 °C 1008.3 hPa North 32 km/h 53 km/h 88% 7.19 mm 83.68 W/m2
11:54 23.0 °C 21.0 °C 1008.3 hPa North 32 km/h 40 km/h 89% 8.99 mm 132.73 W/m2
11:59 23.0 °C 21.0 °C 1007.7 hPa North 26 km/h 36 km/h 89% 7.19 mm 249.44 W/m2
12:04 23.0 °C 21.0 °C 1007.4 hPa NNW 40 km/h 48 km/h 89% 5.41 mm 267.18 W/m2
12:09 23.0 °C 21.0 °C 1007.6 hPa North 34 km/h 44 km/h 89% 3.61 mm 209.07 W/m2
12:14 23.0 °C 21.0 °C 1007.6 hPa North 33 km/h 53 km/h 89% 1.80 mm 148.76 W/m2
12:19 23.0 °C 21.0 °C 1007.3 hPa North 42 km/h 53 km/h 88% 1.80 mm 235.00 W/m2
12:24 23.0 °C 21.0 °C 1006.9 hPa North 44 km/h 61 km/h 88% 1.80 mm 234.64 W/m2
12:29 23.0 °C 21.0 °C 1007.0 hPa NNW 36 km/h 53 km/h 88% 1.80 mm 228.15 W/m2
12:34 23.0 °C 21.0 °C 1007.2 hPa North 40 km/h 64 km/h 88% 0.00 mm 196.47 W/m2
12:39 23.0 °C 21.0 °C 1006.8 hPa North 31 km/h 48 km/h 88% 0.00 mm 170.90 W/m2
12:44 23.0 °C 21.0 °C 1006.9 hPa North 30 km/h 44 km/h 87% 0.00 mm 160.02 W/m2
12:49 23.0 °C 21.0 °C 1006.9 hPa North 38 km/h 48 km/h 87% 0.00 mm 97.99 W/m2
12:54 23.0 °C 21.0 °C 1006.9 hPa North 29 km/h 40 km/h 88% 0.00 mm 62.02 W/m2
12:59 23.0 °C 21.0 °C 1006.5 hPa North 30 km/h 44 km/h 88% 1.80 mm 34.25 W/m2
13:04 23.0 °C 21.0 °C 1006.5 hPa North 30 km/h 44 km/h 88% 3.61 mm 55.90 W/m2
13:09 23.0 °C 21.0 °C 1006.3 hPa North 26 km/h 32 km/h 89% 3.61 mm 68.51 W/m2
13:14 23.0 °C 21.0 °C 1006.2 hPa NNW 24 km/h 40 km/h 89% 5.41 mm 68.02 W/m2
13:19 23.0 °C 21.0 °C 1006.0 hPa North 29 km/h 36 km/h 89% 7.19 mm 44.16 W/m2
13:24 23.0 °C 21.0 °C 1006.1 hPa North 24 km/h 32 km/h 90% 5.41 mm 34.62 W/m2
13:29 23.0 °C 21.0 °C 1006.0 hPa North 23 km/h 36 km/h 90% 8.99 mm 35.97 W/m2
13:34 23.0 °C 21.0 °C 1006.1 hPa North 27 km/h 32 km/h 90% 10.80 mm 39.02 W/m2
13:39 23.0 °C 21.0 °C 1005.8 hPa North 39 km/h 48 km/h 91% 8.99 mm 97.13 W/m2
13:44 23.0 °C 22.0 °C 1005.5 hPa North 25 km/h 36 km/h 91% 7.19 mm 110.10 W/m2
13:49 23.0 °C 22.0 °C 1005.2 hPa North 27 km/h 40 km/h 91% 8.99 mm 109.73 W/m2
13:54 23.0 °C 22.0 °C 1004.9 hPa North 37 km/h 53 km/h 91% 7.19 mm 118.78 W/m2
13:59 23.0 °C 22.0 °C 1004.9 hPa North 28 km/h 44 km/h 91% 5.41 mm 110.10 W/m2
14:04 23.0 °C 22.0 °C 1005.1 hPa North 37 km/h 48 km/h 91% 5.41 mm 84.53 W/m2
14:09 23.0 °C 22.0 °C 1005.1 hPa North 29 km/h 53 km/h 91% 5.41 mm 112.67 W/m2
14:14 23.0 °C 22.0 °C 1004.7 hPa North 34 km/h 56 km/h 91% 7.19 mm 111.44 W/m2
14:19 23.0 °C 22.0 °C 1004.5 hPa North 34 km/h 44 km/h 91% 7.19 mm 116.58 W/m2
14:24 23.0 °C 22.0 °C 1004.6 hPa North 36 km/h 56 km/h 91% 7.19 mm 129.19 W/m2
14:29 23.0 °C 22.0 °C 1004.5 hPa North 34 km/h 53 km/h 91% 10.80 mm 156.59 W/m2
14:34 23.0 °C 22.0 °C 1004.6 hPa North 33 km/h 40 km/h 91% 10.80 mm 60.19 W/m2
14:39 23.0 °C 22.0 °C 1004.4 hPa North 34 km/h 44 km/h 91% 8.99 mm 110.10 W/m2
14:44 23.0 °C 22.0 °C 1004.4 hPa North 24 km/h 32 km/h 91% 1.80 mm 83.19 W/m2
14:49 23.0 °C 22.0 °C 1004.4 hPa North 40 km/h 53 km/h 91% 3.61 mm 91.87 W/m2
14:54 23.0 °C 22.0 °C 1004.3 hPa North 40 km/h 48 km/h 91% 3.61 mm 82.82 W/m2
14:59 23.0 °C 22.0 °C 1004.2 hPa North 52 km/h 61 km/h 91% 1.80 mm 70.71 W/m2
15:04 23.0 °C 22.0 °C 1004.1 hPa North 42 km/h 61 km/h 90% 0.00 mm 76.70 W/m2
15:09 23.0 °C 22.0 °C 1003.8 hPa North 42 km/h 68 km/h 90% 0.00 mm 81.10 W/m2
15:14 24.0 °C 22.0 °C 1003.3 hPa North 49 km/h 89 km/h 90% 0.00 mm 117.93 W/m2
15:19 24.0 °C 22.0 °C 1003.0 hPa North 45 km/h 77 km/h 90% 0.00 mm 130.90 W/m2
15:24 24.0 °C 22.0 °C 1003.3 hPa North 37 km/h 61 km/h 90% 0.00 mm 114.51 W/m2
15:29 24.0 °C 22.0 °C 1003.3 hPa North 41 km/h 53 km/h 89% 0.00 mm 74.14 W/m2
15:34 24.0 °C 22.0 °C 1003.2 hPa North 65 km/h 89 km/h 89% 0.00 mm 84.04 W/m2
15:39 24.0 °C 21.0 °C 1002.8 hPa North 58 km/h 85 km/h 87% 0.00 mm 65.94 W/m2
15:44 24.0 °C 21.0 °C 1002.9 hPa NNW 54 km/h 68 km/h 86% 0.00 mm 52.85 W/m2
15:49 24.0 °C 22.0 °C 1003.0 hPa North 46 km/h 68 km/h 87% 0.00 mm 52.85 W/m2
15:54 24.0 °C 21.0 °C 1002.9 hPa North 69 km/h 93 km/h 86% 0.00 mm 45.02 W/m2
15:59 24.0 °C 22.0 °C 1002.7 hPa North 57 km/h 85 km/h 86% 0.00 mm 68.51 W/m2
16:04 24.0 °C 22.0 °C 1002.6 hPa North 68 km/h 85 km/h 87% 0.00 mm 51.50 W/m2
16:09 24.0 °C 22.0 °C 1002.9 hPa North 47 km/h 64 km/h 88% 0.00 mm 35.48 W/m2
16:14 24.0 °C 22.0 °C 1003.1 hPa North 55 km/h 77 km/h 88% 0.00 mm 24.22 W/m2
16:19 24.0 °C 21.0 °C 1003.0 hPa North 51 km/h 73 km/h 88% 0.00 mm 25.07 W/m2
16:24 24.0 °C 21.0 °C 1003.0 hPa North 42 km/h 56 km/h 88% 0.00 mm 17.73 W/m2
16:29 23.0 °C 21.0 °C 1002.8 hPa NNW 50 km/h 85 km/h 88% 1.80 mm 20.31 W/m2
16:34 23.0 °C 21.0 °C 1002.8 hPa North 56 km/h 89 km/h 88% 3.61 mm 26.79 W/m2
16:39 23.0 °C 21.0 °C 1002.7 hPa North 53 km/h 73 km/h 87% 3.61 mm 27.28 W/m2
16:44 23.0 °C 21.0 °C 1002.7 hPa North 61 km/h 81 km/h 86% 1.80 mm 23.85 W/m2
16:49 23.0 °C 21.0 °C 1002.4 hPa North 63 km/h 97 km/h 85% 0.00 mm 32.05 W/m2
16:54 23.0 °C 21.0 °C 1001.8 hPa North 66 km/h 89 km/h 85% 0.00 mm 32.05 W/m2
16:59 23.0 °C 21.0 °C 1001.6 hPa North 63 km/h 89 km/h 85% 0.00 mm 28.99 W/m2
17:04 23.0 °C 20.0 °C 1001.9 hPa North 54 km/h 81 km/h 84% 0.00 mm 20.80 W/m2
17:09 23.0 °C 20.0 °C 1001.9 hPa North 59 km/h 89 km/h 84% 0.00 mm 10.39 W/m2
17:14 23.0 °C 20.0 °C 1001.8 hPa North 47 km/h 81 km/h 84% 0.00 mm 8.56 W/m2
17:19 24.0 °C 20.0 °C 1001.8 hPa North 53 km/h 77 km/h 83% 0.00 mm 2.94 W/m2
17:24 24.0 °C 20.0 °C 1001.9 hPa North 61 km/h 93 km/h 82% 0.00 mm 0.85 W/m2
17:29 24.0 °C 21.0 °C 1002.3 hPa North 37 km/h 64 km/h 82% 0.00 mm 0.00 W/m2
17:34 24.0 °C 21.0 °C 1002.3 hPa North 40 km/h 61 km/h 83% 0.00 mm 0.00 W/m2
17:39 24.0 °C 21.0 °C 1002.3 hPa North 35 km/h 61 km/h 84% 0.00 mm 0.00 W/m2
17:44 24.0 °C 21.0 °C 1002.2 hPa North 48 km/h 77 km/h 85% 0.00 mm 0.00 W/m2
17:49 24.0 °C 21.0 °C 1002.0 hPa North 47 km/h 61 km/h 85% 0.00 mm 0.00 W/m2
17:54 24.0 °C 21.0 °C 1002.1 hPa North 49 km/h 64 km/h 85% 0.00 mm 0.00 W/m2
17:59 24.0 °C 21.0 °C 1002.0 hPa North 51 km/h 68 km/h 84% 0.00 mm 0.00 W/m2
18:04 24.0 °C 21.0 °C 1002.1 hPa North 51 km/h 77 km/h 83% 0.00 mm 0.00 W/m2
18:09 24.0 °C 21.0 °C 1002.4 hPa North 46 km/h 73 km/h 84% 1.80 mm 0.00 W/m2
18:14 24.0 °C 21.0 °C 1002.4 hPa North 47 km/h 61 km/h 84% 1.80 mm 0.00 W/m2
18:19 24.0 °C 21.0 °C 1002.6 hPa North 40 km/h 64 km/h 84% 1.80 mm 0.00 W/m2
18:24 24.0 °C 21.0 °C 1002.8 hPa North 42 km/h 48 km/h 84% 0.00 mm 0.00 W/m2
18:29 24.0 °C 21.0 °C 1002.8 hPa North 32 km/h 64 km/h 84% 0.00 mm 0.00 W/m2
18:34 24.0 °C 21.0 °C 1002.9 hPa North 41 km/h 61 km/h 84% 0.00 mm 0.00 W/m2
18:39 24.0 °C 21.0 °C 1002.9 hPa North 44 km/h 77 km/h 84% 0.00 mm 0.00 W/m2
18:44 24.0 °C 21.0 °C 1002.9 hPa North 45 km/h 61 km/h 84% 0.00 mm 0.00 W/m2
18:49 24.0 °C 21.0 °C 1002.9 hPa North 39 km/h 53 km/h 84% 0.00 mm 0.00 W/m2
18:54 24.0 °C 21.0 °C 1003.0 hPa NNW 42 km/h 48 km/h 85% 0.00 mm 0.00 W/m2
18:59 24.0 °C 21.0 °C 1003.0 hPa North 41 km/h 61 km/h 84% 0.00 mm 0.00 W/m2
19:04 24.0 °C 21.0 °C 1003.3 hPa North 44 km/h 64 km/h 84% 0.00 mm 0.00 W/m2
19:09 24.0 °C 21.0 °C 1003.3 hPa NNW 43 km/h 61 km/h 84% 0.00 mm 0.00 W/m2
19:14 24.0 °C 21.0 °C 1003.2 hPa North 49 km/h 64 km/h 84% 0.00 mm 0.00 W/m2
19:19 24.0 °C 21.0 °C 1003.0 hPa North 58 km/h 68 km/h 84% 0.00 mm 0.00 W/m2
19:24 24.0 °C 21.0 °C 1002.9 hPa North 43 km/h 53 km/h 84% 0.00 mm 0.00 W/m2
19:29 24.0 °C 21.0 °C 1002.9 hPa North 41 km/h 53 km/h 85% 0.00 mm 0.00 W/m2
19:34 24.0 °C 21.0 °C 1003.0 hPa North 41 km/h 53 km/h 84% 0.00 mm 0.00 W/m2
19:39 25.0 °C 21.0 °C 1002.9 hPa North 36 km/h 53 km/h 84% 0.00 mm 0.00 W/m2
19:44 25.0 °C 22.0 °C 1003.2 hPa NNE 40 km/h 61 km/h 83% 0.00 mm 0.00 W/m2
19:49 25.0 °C 22.0 °C 1003.2 hPa NNE 36 km/h 61 km/h 82% 0.00 mm 0.00 W/m2
19:54 25.0 °C 22.0 °C 1003.3 hPa North 42 km/h 68 km/h 81% 0.00 mm 0.00 W/m2
19:59 25.0 °C 22.0 °C 1003.4 hPa North 31 km/h 53 km/h 81% 0.00 mm 0.00 W/m2
20:04 25.0 °C 22.0 °C 1003.4 hPa North 34 km/h 56 km/h 81% 0.00 mm 0.00 W/m2
20:09 26.0 °C 22.0 °C 1003.3 hPa North 33 km/h 53 km/h 79% 0.00 mm 0.00 W/m2
20:14 26.0 °C 22.0 °C 1003.5 hPa North 38 km/h 56 km/h 79% 0.00 mm 0.00 W/m2
20:19 26.0 °C 22.0 °C 1003.6 hPa North 30 km/h 53 km/h 79% 0.00 mm 0.00 W/m2
20:24 26.0 °C 22.0 °C 1003.7 hPa North 30 km/h 53 km/h 78% 0.00 mm 0.00 W/m2
20:29 26.0 °C 22.0 °C 1003.7 hPa North 43 km/h 61 km/h 78% 0.00 mm 0.00 W/m2
20:34 26.0 °C 22.0 °C 1003.8 hPa North 46 km/h 64 km/h 78% 0.00 mm 0.00 W/m2
20:39 26.0 °C 22.0 °C 1003.8 hPa NNE 40 km/h 56 km/h 78% 0.00 mm 0.00 W/m2
20:44 26.0 °C 22.0 °C 1003.9 hPa North 39 km/h 61 km/h 78% 0.00 mm 0.00 W/m2
20:49 26.0 °C 22.0 °C 1004.0 hPa North 23 km/h 36 km/h 78% 0.00 mm 0.00 W/m2
20:54 26.0 °C 22.0 °C 1004.0 hPa North 37 km/h 56 km/h 78% 0.00 mm 0.00 W/m2
20:59 26.0 °C 22.0 °C 1004.2 hPa North 37 km/h 56 km/h 78% 0.00 mm 0.00 W/m2
21:04 26.0 °C 22.0 °C 1004.6 hPa North 19 km/h 24 km/h 80% 0.00 mm 0.00 W/m2
21:09 25.0 °C 22.0 °C 1004.6 hPa NNE 29 km/h 44 km/h 81% 0.00 mm 0.00 W/m2
21:14 25.0 °C 22.0 °C 1004.6 hPa NNE 15 km/h 28 km/h 81% 0.00 mm 0.00 W/m2
21:19 25.0 °C 22.0 °C 1004.8 hPa NNE 15 km/h 20 km/h 80% 0.00 mm 0.00 W/m2
21:24 25.0 °C 22.0 °C 1004.9 hPa ENE 10 km/h 16 km/h 81% 0.00 mm 0.00 W/m2
21:29 25.0 °C 22.0 °C 1005.0 hPa ENE 15 km/h 16 km/h 82% 1.80 mm 0.00 W/m2
21:34 25.0 °C 22.0 °C 1004.9 hPa NE 13 km/h 24 km/h 83% 1.80 mm 0.00 W/m2
21:39 25.0 °C 22.0 °C 1004.8 hPa NNE 14 km/h 20 km/h 83% 1.80 mm 0.00 W/m2
21:44 25.0 °C 22.0 °C 1004.9 hPa North 14 km/h 20 km/h 83% 0.00 mm 0.00 W/m2
21:49 25.0 °C 22.0 °C 1005.0 hPa North 20 km/h 24 km/h 83% 0.00 mm 0.00 W/m2
21:54 25.0 °C 22.0 °C 1005.0 hPa North 12 km/h 20 km/h 84% 1.80 mm 0.00 W/m2
21:59 25.0 °C 22.0 °C 1005.2 hPa North 6 km/h 8 km/h 84% 1.80 mm 0.00 W/m2
22:04 25.0 °C 22.0 °C 1005.2 hPa NNE 5 km/h 8 km/h 85% 1.80 mm 0.00 W/m2
22:09 25.0 °C 22.0 °C 1005.4 hPa NE 5 km/h 8 km/h 85% 0.00 mm 0.00 W/m2
22:14 25.0 °C 22.0 °C 1005.4 hPa SE 4 km/h 4 km/h 86% 0.00 mm 0.00 W/m2
22:19 25.0 °C 22.0 °C 1005.3 hPa NE 11 km/h 16 km/h 86% 0.00 mm 0.00 W/m2
22:24 25.0 °C 22.0 °C 1005.4 hPa ENE 17 km/h 24 km/h 85% 0.00 mm 0.00 W/m2
22:29 25.0 °C 22.0 °C 1005.3 hPa East 19 km/h 28 km/h 84% 0.00 mm 0.00 W/m2
22:34 25.0 °C 22.0 °C 1005.4 hPa East 24 km/h 28 km/h 83% 0.00 mm 0.00 W/m2
22:39 26.0 °C 22.0 °C 1005.4 hPa ENE 33 km/h 61 km/h 82% 1.80 mm 0.00 W/m2
22:44 26.0 °C 22.0 °C 1005.4 hPa East 31 km/h 44 km/h 81% 1.80 mm 0.00 W/m2
22:49 26.0 °C 22.0 °C 1005.4 hPa East 18 km/h 24 km/h 81% 1.80 mm 0.00 W/m2
22:54 26.0 °C 22.0 °C 1005.8 hPa ENE 21 km/h 32 km/h 81% 0.00 mm 0.00 W/m2
22:59 26.0 °C 22.0 °C 1005.9 hPa NE 15 km/h 24 km/h 81% 0.00 mm 0.00 W/m2
23:04 26.0 °C 22.0 °C 1005.8 hPa ENE 29 km/h 48 km/h 81% 0.00 mm 0.00 W/m2
23:09 26.0 °C 22.0 °C 1005.9 hPa NE 29 km/h 44 km/h 81% 0.00 mm 0.00 W/m2
23:14 25.0 °C 22.0 °C 1006.0 hPa NE 37 km/h 44 km/h 81% 0.00 mm 0.00 W/m2
23:19 25.0 °C 22.0 °C 1005.9 hPa ENE 27 km/h 36 km/h 81% 0.00 mm 0.00 W/m2
23:24 25.0 °C 22.0 °C 1006.0 hPa SSE 36 km/h 56 km/h 83% 0.00 mm 0.00 W/m2
23:29 25.0 °C 22.0 °C 1006.1 hPa SW 27 km/h 44 km/h 85% 0.00 mm 0.00 W/m2
23:34 25.0 °C 22.0 °C 1006.1 hPa SE 23 km/h 36 km/h 86% 0.00 mm 0.00 W/m2
23:39 25.0 °C 22.0 °C 1006.0 hPa SSE 20 km/h 28 km/h 86% 0.00 mm 0.00 W/m2
23:44 25.0 °C 22.0 °C 1006.3 hPa NE 16 km/h 24 km/h 87% 0.00 mm 0.00 W/m2
23:49 24.0 °C 22.0 °C 1006.2 hPa West 24 km/h 32 km/h 87% 0.00 mm 0.00 W/m2
23:54 24.0 °C 22.0 °C 1006.2 hPa East 30 km/h 48 km/h 88% 0.00 mm 0.00 W/m2
23:59 24.0 °C 22.0 °C 1006.2 hPa ENE 19 km/h 36 km/h 88% 0.00 mm 0.00 W/m2
PIMOHWEATHER Philippines
Compliments of Weather Underground - 2 mb